createdAt,value
2019-02-16T00:00:42.151Z,52.37
2019-02-16T00:01:45.599Z,52.27
2019-02-16T00:02:42.148Z,52.48
2019-02-16T00:03:42.119Z,53.09
2019-02-16T00:04:42.283Z,53.61
2019-02-16T00:05:42.108Z,52.58
2019-02-16T00:06:42.239Z,53.41
2019-02-16T00:07:42.106Z,53.30
2019-02-16T00:08:42.227Z,52.69
2019-02-16T00:09:42.068Z,52.58
2019-02-16T00:10:42.273Z,52.48
2019-02-16T00:11:42.041Z,52.99
2019-02-16T00:12:42.178Z,52.37
2019-02-16T00:13:42.013Z,53.30
2019-02-16T00:14:42.140Z,54.05
2019-02-16T00:15:42.009Z,53.94
2019-02-16T00:16:43.226Z,54.02
2019-02-16T00:17:42.010Z,53.53
2019-02-16T00:18:42.171Z,53.92
2019-02-16T00:19:41.951Z,54.05
2019-02-16T00:20:42.067Z,53.41
2019-02-16T00:21:41.945Z,53.84
2019-02-16T00:22:42.187Z,53.74
2019-02-16T00:23:41.921Z,53.63
2019-02-16T00:24:43.014Z,53.53
2019-02-16T00:25:41.895Z,54.05
2019-02-16T00:26:42.010Z,53.74
2019-02-16T00:27:41.955Z,54.46
2019-02-16T00:28:42.016Z,53.63
2019-02-16T00:29:41.877Z,54.46
2019-02-16T00:30:42.058Z,54.25
2019-02-16T00:31:41.840Z,54.46
2019-02-16T00:32:42.018Z,54.56
2019-02-16T00:33:41.846Z,54.25
2019-02-16T00:34:41.967Z,54.25
2019-02-16T00:35:41.811Z,54.66
2019-02-16T00:36:41.972Z,54.25
2019-02-16T00:37:41.856Z,54.05
2019-02-16T00:38:41.751Z,54.05
2019-02-16T00:39:41.759Z,54.77
2019-02-16T00:40:41.802Z,54.56
2019-02-16T00:41:41.741Z,54.66
2019-02-16T00:42:41.867Z,53.94
2019-02-16T00:43:41.723Z,54.35
2019-02-16T00:44:41.715Z,54.15
2019-02-16T00:45:41.683Z,54.35
2019-02-16T00:46:41.844Z,53.84
2019-02-16T00:47:41.691Z,54.15
2019-02-16T00:48:41.740Z,54.66
2019-02-16T00:49:41.636Z,54.05
2019-02-16T00:50:41.696Z,54.15
2019-02-16T00:51:41.642Z,54.46
2019-02-16T00:52:42.653Z,54.77
2019-02-16T00:53:41.600Z,54.25
2019-02-16T00:54:41.676Z,54.66
2019-02-16T00:55:41.590Z,54.05
2019-02-16T00:56:41.573Z,54.05
2019-02-16T00:57:41.612Z,54.15
2019-02-16T00:58:41.704Z,54.77
2019-02-16T00:59:41.550Z,54.25
2019-02-16T01:00:42.643Z,53.94
2019-02-16T01:01:41.528Z,54.66
2019-02-16T01:02:41.609Z,55.07
2019-02-16T01:03:41.689Z,55.51
2019-02-16T01:04:41.495Z,54.97
2019-02-16T01:05:43.608Z,54.90
2019-02-16T01:06:41.463Z,55.00
2019-02-16T01:07:42.646Z,55.21
2019-02-16T01:08:41.447Z,55.21
2019-02-16T01:09:41.580Z,55.51
2019-02-16T01:10:41.438Z,55.41
2019-02-16T01:11:42.526Z,55.72
2019-02-16T01:12:41.441Z,55.95
2019-02-16T01:13:41.500Z,56.36
2019-02-16T01:14:41.374Z,55.10
2019-02-16T01:15:41.514Z,55.41
2019-02-16T01:16:41.390Z,55.51
2019-02-16T01:17:41.486Z,56.16
2019-02-16T01:18:41.329Z,56.16
2019-02-16T01:19:41.438Z,56.77
2019-02-16T01:20:41.326Z,56.67
2019-02-16T01:21:41.449Z,56.05
2019-02-16T01:22:41.337Z,55.95
2019-02-16T01:23:41.471Z,55.54
2019-02-16T01:24:41.271Z,55.85
2019-02-16T01:25:41.380Z,55.64
2019-02-16T01:26:41.383Z,56.46
2019-02-16T01:27:41.272Z,56.67
2019-02-16T01:28:41.404Z,56.57
2019-02-16T01:29:41.237Z,56.67
2019-02-16T01:30:41.332Z,56.67
2019-02-16T01:31:41.194Z,57.29
2019-02-16T01:32:41.264Z,56.67
2019-02-16T01:33:41.196Z,56.98
2019-02-16T01:34:41.345Z,57.18
2019-02-16T01:35:41.166Z,57.09
2019-02-16T01:36:41.259Z,57.29
2019-02-16T01:37:41.163Z,57.18
2019-02-16T01:38:41.140Z,57.62
2019-02-16T01:39:41.304Z,57.70
2019-02-16T01:40:41.099Z,57.39
2019-02-16T01:41:41.172Z,57.83
2019-02-16T01:42:41.109Z,58.04
2019-02-16T01:43:41.203Z,57.42
2019-02-16T01:44:41.090Z,57.11
2019-02-16T01:45:41.207Z,57.93
2019-02-16T01:46:41.038Z,57.73
2019-02-16T01:47:43.217Z,57.83
2019-02-16T01:48:41.028Z,58.04
2019-02-16T01:49:41.121Z,58.14
2019-02-16T01:50:41.016Z,57.76
2019-02-16T01:51:41.158Z,57.86
2019-02-16T01:52:41.018Z,57.83
2019-02-16T01:53:41.074Z,58.14
2019-02-16T01:54:40.959Z,58.45
2019-02-16T01:55:42.105Z,58.27
2019-02-16T01:56:40.961Z,58.37
2019-02-16T01:57:41.182Z,58.48
2019-02-16T01:58:40.933Z,58.58
2019-02-16T01:59:43.085Z,59.30
2019-02-16T02:00:40.910Z,59.12
2019-02-16T02:01:43.062Z,59.53
2019-02-16T02:02:40.901Z,59.61
2019-02-16T02:03:41.013Z,59.44
2019-02-16T02:04:40.869Z,59.64
2019-02-16T02:05:40.956Z,59.95
2019-02-16T02:06:40.864Z,60.26
2019-02-16T02:07:41.925Z,59.64
2019-02-16T02:08:40.836Z,60.47
2019-02-16T02:09:40.950Z,59.84
2019-02-16T02:10:40.808Z,59.95
2019-02-16T02:11:40.858Z,60.26
2019-02-16T02:12:40.828Z,60.05
2019-02-16T02:13:40.882Z,59.74
2019-02-16T02:14:40.763Z,60.18
2019-02-16T02:15:40.902Z,60.49
2019-02-16T02:16:40.833Z,59.56
2019-02-16T02:17:40.877Z,59.98
2019-02-16T02:18:40.719Z,59.77
2019-02-16T02:19:40.744Z,59.88
2019-02-16T02:20:40.676Z,60.08
2019-02-16T02:21:41.605Z,59.98
2019-02-16T02:22:40.694Z,59.80
2019-02-16T02:23:40.754Z,60.18
2019-02-16T02:24:40.642Z,60.80
2019-02-16T02:25:40.642Z,60.80
2019-02-16T02:26:40.646Z,60.83
2019-02-16T02:27:41.839Z,60.83
2019-02-16T02:28:40.593Z,61.45
2019-02-16T02:29:40.692Z,61.87
2019-02-16T02:30:40.580Z,61.45
2019-02-16T02:31:40.588Z,62.07
2019-02-16T02:32:40.582Z,61.55
2019-02-16T02:33:40.775Z,62.17
2019-02-16T02:34:40.562Z,61.27
2019-02-16T02:35:40.627Z,62.10
2019-02-16T02:36:40.526Z,62.72
2019-02-16T02:37:40.551Z,62.82
2019-02-16T02:38:40.490Z,62.72
2019-02-16T02:39:40.661Z,62.10
2019-02-16T02:40:40.537Z,62.93
2019-02-16T02:41:40.576Z,61.89
2019-02-16T02:42:40.539Z,61.79
2019-02-16T02:43:40.444Z,61.89
2019-02-16T02:44:40.576Z,62.72
2019-02-16T02:45:40.419Z,62.51
2019-02-16T02:46:41.508Z,62.41
2019-02-16T02:47:40.454Z,62.51
2019-02-16T02:48:40.517Z,62.72
2019-02-16T02:49:40.378Z,62.75
2019-02-16T02:50:40.511Z,63.26
2019-02-16T02:51:40.371Z,62.95
2019-02-16T02:52:40.510Z,63.78
2019-02-16T02:53:40.340Z,63.78
2019-02-16T02:54:40.460Z,63.71
2019-02-16T02:55:40.317Z,63.81
2019-02-16T02:56:40.448Z,64.64
2019-02-16T02:57:40.330Z,64.32
2019-02-16T02:58:40.463Z,64.53
2019-02-16T02:59:40.321Z,64.74
2019-02-16T03:00:40.388Z,64.53
2019-02-16T03:01:40.257Z,64.64
2019-02-16T03:02:40.430Z,65.47
2019-02-16T03:03:40.229Z,64.84
2019-02-16T03:04:40.408Z,65.19
2019-02-16T03:05:40.257Z,65.81
2019-02-16T03:06:40.341Z,65.94
2019-02-16T03:07:40.261Z,66.12
2019-02-16T03:08:40.361Z,65.81
2019-02-16T03:09:40.188Z,66.46
2019-02-16T03:10:41.270Z,66.66
2019-02-16T03:11:40.159Z,66.77
2019-02-16T03:12:40.306Z,66.46
2019-02-16T03:13:40.243Z,66.35
2019-02-16T03:14:40.142Z,66.56
2019-02-16T03:15:40.266Z,66.77
2019-02-16T03:16:40.123Z,67.00
2019-02-16T03:17:40.268Z,67.18
2019-02-16T03:18:40.067Z,67.18
2019-02-16T03:19:40.070Z,67.42
2019-02-16T03:20:40.061Z,67.32
2019-02-16T03:21:40.204Z,66.90
2019-02-16T03:22:40.102Z,68.15
2019-02-16T03:23:40.132Z,67.94
2019-02-16T03:24:40.024Z,67.94
2019-02-16T03:25:40.021Z,67.52
2019-02-16T03:26:39.991Z,67.94
2019-02-16T03:27:40.121Z,68.04
2019-02-16T03:28:39.985Z,68.04
2019-02-16T03:29:40.069Z,68.04
2019-02-16T03:30:39.966Z,68.07
2019-02-16T03:31:40.011Z,68.07
2019-02-16T03:32:39.968Z,68.04
2019-02-16T03:33:40.100Z,68.07
2019-02-16T03:34:39.913Z,68.90
2019-02-16T03:35:40.005Z,68.70
2019-02-16T03:36:39.886Z,68.59
2019-02-16T03:37:40.067Z,69.01
2019-02-16T03:38:39.890Z,68.38
2019-02-16T03:39:40.061Z,68.28
2019-02-16T03:40:39.847Z,68.59
2019-02-16T03:41:39.992Z,68.18
2019-02-16T03:42:39.865Z,68.49
2019-02-16T03:43:39.956Z,68.38
2019-02-16T03:44:39.827Z,68.38
2019-02-16T03:45:39.972Z,68.49
2019-02-16T03:46:39.804Z,68.38
2019-02-16T03:47:39.958Z,68.59
2019-02-16T03:48:40.452Z,68.73
2019-02-16T03:49:39.880Z,69.11
2019-02-16T03:50:39.751Z,69.04
2019-02-16T03:51:39.909Z,69.35
2019-02-16T03:52:39.766Z,69.14
2019-02-16T03:53:39.818Z,69.24
2019-02-16T03:54:39.754Z,69.24
2019-02-16T03:55:39.833Z,69.42
2019-02-16T03:56:39.821Z,69.11
2019-02-16T03:57:39.722Z,68.49
2019-02-16T03:58:39.731Z,68.38
2019-02-16T03:59:39.676Z,68.70
2019-02-16T04:00:39.749Z,67.97
2019-02-16T04:01:39.672Z,68.38
2019-02-16T04:02:39.681Z,68.18
2019-02-16T04:03:39.780Z,68.25
2019-02-16T04:04:39.621Z,68.25
2019-02-16T04:05:39.681Z,67.73
2019-02-16T04:06:39.575Z,67.94
2019-02-16T04:07:39.796Z,67.83
2019-02-16T04:08:39.594Z,67.91
2019-02-16T04:09:39.727Z,67.60
2019-02-16T04:10:39.618Z,66.97
2019-02-16T04:11:39.626Z,67.60
2019-02-16T04:12:39.518Z,67.39
2019-02-16T04:13:39.651Z,67.18
2019-02-16T04:14:39.548Z,67.29
2019-02-16T04:15:39.528Z,67.39
2019-02-16T04:16:40.955Z,67.18
2019-02-16T04:17:39.466Z,67.21
2019-02-16T04:18:39.584Z,67.21
2019-02-16T04:19:39.463Z,67.94
2019-02-16T04:20:39.484Z,67.83
2019-02-16T04:21:39.618Z,67.18
2019-02-16T04:22:39.492Z,67.29
2019-02-16T04:23:39.529Z,67.18
2019-02-16T04:24:40.410Z,67.08
2019-02-16T04:25:39.519Z,67.18
2019-02-16T04:26:40.658Z,67.73
2019-02-16T04:27:39.485Z,67.32
2019-02-16T04:28:39.372Z,67.94
2019-02-16T04:29:39.607Z,67.63
2019-02-16T04:30:39.340Z,67.63
2019-02-16T04:31:39.463Z,67.73
2019-02-16T04:32:39.347Z,67.52
2019-02-16T04:33:39.459Z,68.18
2019-02-16T04:34:39.292Z,67.66
2019-02-16T04:35:39.412Z,67.66
2019-02-16T04:36:39.281Z,68.07
2019-02-16T04:37:39.470Z,67.94
2019-02-16T04:38:39.267Z,68.04
2019-02-16T04:39:39.424Z,68.15
2019-02-16T04:40:39.234Z,68.18
2019-02-16T04:41:39.320Z,68.15
2019-02-16T04:42:39.212Z,68.28
2019-02-16T04:43:39.409Z,68.18
2019-02-16T04:44:39.224Z,67.86
2019-02-16T04:45:39.351Z,68.07
2019-02-16T04:46:39.190Z,69.01
2019-02-16T04:47:39.263Z,68.59
2019-02-16T04:48:39.155Z,68.59
2019-02-16T04:49:39.329Z,69.11
2019-02-16T04:50:39.148Z,68.80
2019-02-16T04:51:39.274Z,68.80
2019-02-16T04:52:39.144Z,68.07
2019-02-16T04:53:46.064Z,68.35
2019-02-16T04:54:40.432Z,67.94
2019-02-16T04:55:39.221Z,68.56
2019-02-16T04:56:39.207Z,68.25
2019-02-16T04:57:39.071Z,68.77
2019-02-16T04:58:39.164Z,68.77
2019-02-16T04:59:39.070Z,68.70
2019-02-16T05:00:39.218Z,68.70
2019-02-16T05:01:39.034Z,68.46
2019-02-16T05:02:39.030Z,68.49
2019-02-16T05:03:39.188Z,68.49
2019-02-16T05:04:38.990Z,68.70
2019-02-16T05:05:39.077Z,68.56
2019-02-16T05:06:39.029Z,69.01
2019-02-16T05:07:39.082Z,68.80
2019-02-16T05:08:39.097Z,69.11
2019-02-16T05:09:38.928Z,68.07
2019-02-16T05:10:39.086Z,68.07
2019-02-16T05:11:38.936Z,68.59
2019-02-16T05:12:39.087Z,68.15
2019-02-16T05:13:38.904Z,67.63
2019-02-16T05:14:38.899Z,67.42
2019-02-16T05:15:38.906Z,67.91
2019-02-16T05:16:38.934Z,68.04
2019-02-16T05:17:38.861Z,67.91
2019-02-16T05:18:39.024Z,67.70
2019-02-16T05:19:38.854Z,67.39
2019-02-16T05:20:38.857Z,67.60
2019-02-16T05:21:38.839Z,67.83
2019-02-16T05:22:44.535Z,68.15
2019-02-16T05:23:39.827Z,68.25
2019-02-16T05:24:38.910Z,68.25
2019-02-16T05:25:38.787Z,67.83
2019-02-16T05:26:38.777Z,69.11
2019-02-16T05:27:38.745Z,68.38
2019-02-16T05:28:38.823Z,68.59
2019-02-16T05:29:38.788Z,68.49
2019-02-16T05:30:38.850Z,68.70
2019-02-16T05:31:38.721Z,68.28
2019-02-16T05:32:38.744Z,68.59
2019-02-16T05:33:38.700Z,68.80
2019-02-16T05:34:38.862Z,68.38
2019-02-16T05:35:38.668Z,68.38
2019-02-16T05:36:38.786Z,68.90
2019-02-16T05:37:38.648Z,69.21
2019-02-16T05:38:38.772Z,69.24
2019-02-16T05:39:38.686Z,69.35
2019-02-16T05:40:38.770Z,69.45
2019-02-16T05:41:38.615Z,69.53
2019-02-16T05:42:40.243Z,70.07
2019-02-16T05:43:38.631Z,70.18
2019-02-16T05:44:38.727Z,70.49
2019-02-16T05:45:38.592Z,70.59
2019-02-16T05:46:38.700Z,70.39
2019-02-16T05:47:38.614Z,70.28
2019-02-16T05:48:39.677Z,69.87
2019-02-16T05:49:38.540Z,70.10
2019-02-16T05:50:38.659Z,69.90
2019-02-16T05:51:38.547Z,70.73
2019-02-16T05:52:38.600Z,70.52
2019-02-16T05:53:38.512Z,70.52
2019-02-16T05:54:38.589Z,70.62
2019-02-16T05:55:38.461Z,70.52
2019-02-16T05:56:38.603Z,70.73
2019-02-16T05:57:39.521Z,70.42
2019-02-16T05:58:38.493Z,70.31
2019-02-16T05:59:38.421Z,70.62
2019-02-16T06:00:38.586Z,70.00
2019-02-16T06:01:38.411Z,70.52
2019-02-16T06:02:38.528Z,70.62
2019-02-16T06:03:38.510Z,70.73
2019-02-16T06:04:38.379Z,70.73
2019-02-16T06:05:40.744Z,70.83
2019-02-16T06:06:38.359Z,70.73
2019-02-16T06:07:38.458Z,71.08
2019-02-16T06:08:38.341Z,71.66
2019-02-16T06:09:38.356Z,71.66
2019-02-16T06:10:38.389Z,71.70
2019-02-16T06:11:38.313Z,72.22
2019-02-16T06:12:38.411Z,71.28
2019-02-16T06:13:38.289Z,71.39
2019-02-16T06:14:38.378Z,71.59
2019-02-16T06:15:38.252Z,71.39
2019-02-16T06:16:38.313Z,72.22
2019-02-16T06:17:38.302Z,72.01
2019-02-16T06:18:38.385Z,71.91
2019-02-16T06:19:38.209Z,71.70
2019-02-16T06:20:38.316Z,72.01
2019-02-16T06:21:39.278Z,72.63
2019-02-16T06:22:38.192Z,72.25
2019-02-16T06:23:38.253Z,72.35
2019-02-16T06:24:38.174Z,72.53
2019-02-16T06:25:38.353Z,72.77
2019-02-16T06:26:38.191Z,72.32
2019-02-16T06:27:38.153Z,72.35
2019-02-16T06:28:38.149Z,72.63
2019-02-16T06:29:38.209Z,72.84
2019-02-16T06:30:38.109Z,72.63
2019-02-16T06:31:38.325Z,72.63
2019-02-16T06:32:38.094Z,72.42
2019-02-16T06:33:38.058Z,72.11
2019-02-16T06:34:38.075Z,72.84
2019-02-16T06:35:38.129Z,73.28
2019-02-16T06:36:38.048Z,72.97
2019-02-16T06:37:38.236Z,73.28
2019-02-16T06:38:38.042Z,73.39
2019-02-16T06:39:38.028Z,73.39
2019-02-16T06:40:37.997Z,73.63
2019-02-16T06:41:38.115Z,73.53
2019-02-16T06:42:38.032Z,73.63
2019-02-16T06:43:38.172Z,74.01
2019-02-16T06:44:37.968Z,73.84
2019-02-16T06:45:38.089Z,73.94
2019-02-16T06:46:37.952Z,74.15
2019-02-16T06:47:38.017Z,74.15
2019-02-16T06:48:37.926Z,73.84
2019-02-16T06:49:39.121Z,74.26
2019-02-16T06:50:37.900Z,73.94
2019-02-16T06:51:38.073Z,74.15
2019-02-16T06:52:37.871Z,74.15
2019-02-16T06:53:37.938Z,74.05
2019-02-16T06:54:37.893Z,74.46
2019-02-16T06:55:38.092Z,74.36
2019-02-16T06:56:37.894Z,74.08
2019-02-16T06:57:37.948Z,74.29
2019-02-16T06:58:37.894Z,74.57
2019-02-16T06:59:37.898Z,74.26
2019-02-16T07:00:37.849Z,74.46
2019-02-16T07:01:37.962Z,74.36
2019-02-16T07:02:37.782Z,74.26
2019-02-16T07:03:37.804Z,74.39
2019-02-16T07:04:37.772Z,74.70
2019-02-16T07:05:37.834Z,74.80
2019-02-16T07:06:38.024Z,74.91
2019-02-16T07:07:37.848Z,75.12
2019-02-16T07:08:37.721Z,75.09
2019-02-16T07:09:37.766Z,75.12
2019-02-16T07:10:37.757Z,75.12
2019-02-16T07:11:37.886Z,75.01
2019-02-16T07:12:37.683Z,74.91
2019-02-16T07:13:37.795Z,75.12
2019-02-16T07:14:37.654Z,74.98
2019-02-16T07:15:37.634Z,75.19
2019-02-16T07:16:37.780Z,75.22
2019-02-16T07:17:39.411Z,75.22
2019-02-16T07:18:37.686Z,75.54
2019-02-16T07:19:37.766Z,75.09
2019-02-16T07:20:37.591Z,75.29
2019-02-16T07:21:38.399Z,75.32
2019-02-16T07:22:37.592Z,75.09
2019-02-16T07:23:37.764Z,75.09
2019-02-16T07:24:37.600Z,75.09
2019-02-16T07:25:38.684Z,74.74
2019-02-16T07:26:37.670Z,74.22
2019-02-16T07:27:37.583Z,74.74
2019-02-16T07:28:37.575Z,74.63
2019-02-16T07:29:37.585Z,74.32
2019-02-16T07:30:37.522Z,73.77
2019-02-16T07:31:37.710Z,74.08
2019-02-16T07:32:37.536Z,73.88
2019-02-16T07:33:37.500Z,73.15
2019-02-16T07:34:37.448Z,72.60
2019-02-16T07:35:37.618Z,72.18
2019-02-16T07:36:37.649Z,71.66
2019-02-16T07:37:37.547Z,71.22
2019-02-16T07:38:37.460Z,71.73
2019-02-16T07:39:37.374Z,71.73
2019-02-16T07:40:38.401Z,70.97
2019-02-16T07:41:37.508Z,70.87
2019-02-16T07:42:37.405Z,70.25
2019-02-16T07:43:38.268Z,70.32
2019-02-16T07:44:37.445Z,69.80
2019-02-16T07:45:37.360Z,69.49
2019-02-16T07:46:37.632Z,69.39
2019-02-16T07:47:37.358Z,69.18
2019-02-16T07:48:38.430Z,69.29
2019-02-16T07:49:37.307Z,69.80
2019-02-16T07:50:37.402Z,69.70
2019-02-16T07:51:37.373Z,69.15
2019-02-16T07:52:38.340Z,68.94
2019-02-16T07:53:37.315Z,69.35
2019-02-16T07:54:37.336Z,68.12
2019-02-16T07:55:37.235Z,69.15
2019-02-16T07:56:37.466Z,68.70
2019-02-16T07:57:37.221Z,68.32
2019-02-16T07:58:37.246Z,68.91
2019-02-16T07:59:37.236Z,68.19
2019-02-16T08:00:37.279Z,67.98
2019-02-16T08:01:37.194Z,67.67
2019-02-16T08:02:37.173Z,67.05
2019-02-16T08:03:37.249Z,67.25
2019-02-16T08:04:37.291Z,67.33
2019-02-16T08:05:37.140Z,66.19
2019-02-16T08:06:37.342Z,66.71
2019-02-16T08:07:37.119Z,67.22
2019-02-16T08:08:37.209Z,66.36
2019-02-16T08:09:37.112Z,66.36
2019-02-16T08:10:37.258Z,66.78
2019-02-16T08:11:37.182Z,65.54
2019-02-16T08:12:37.153Z,65.95
2019-02-16T08:13:37.114Z,65.41
2019-02-16T08:14:37.102Z,65.51
2019-02-16T08:15:37.043Z,64.89
2019-02-16T08:16:37.131Z,65.20
2019-02-16T08:17:37.019Z,64.89
2019-02-16T08:18:37.076Z,65.09
2019-02-16T08:19:36.994Z,65.27
2019-02-16T08:20:36.965Z,64.14
2019-02-16T08:21:37.005Z,63.93
2019-02-16T08:22:37.019Z,63.51
2019-02-16T08:23:40.371Z,63.82
2019-02-16T08:24:38.687Z,63.42
2019-02-16T08:25:36.938Z,62.59
2019-02-16T08:26:37.078Z,61.76
2019-02-16T08:27:37.050Z,63.07
2019-02-16T08:28:36.879Z,63.31
2019-02-16T08:29:36.947Z,64.00
2019-02-16T08:30:36.947Z,62.46
2019-02-16T08:31:36.954Z,62.87
2019-02-16T08:32:36.941Z,63.28
2019-02-16T08:33:37.135Z,62.55
2019-02-16T08:34:36.875Z,62.25
2019-02-16T08:35:37.907Z,61.60
2019-02-16T08:36:36.976Z,60.05
2019-02-16T08:37:37.945Z,59.74
2019-02-16T08:38:36.782Z,60.75
2019-02-16T08:39:36.910Z,59.92
2019-02-16T08:40:36.776Z,59.92
2019-02-16T08:41:36.929Z,60.95
2019-02-16T08:42:36.827Z,60.21
2019-02-16T08:43:38.467Z,59.72
2019-02-16T08:44:37.727Z,60.10
2019-02-16T08:45:36.949Z,59.89
2019-02-16T08:46:36.942Z,59.48
2019-02-16T08:47:36.857Z,59.69
2019-02-16T08:48:36.765Z,59.48
2019-02-16T08:49:36.733Z,58.14
2019-02-16T08:50:36.707Z,58.55
2019-02-16T08:51:36.864Z,58.32
2019-02-16T08:52:36.655Z,58.53
2019-02-16T08:53:36.811Z,59.14
2019-02-16T08:54:36.689Z,58.32
2019-02-16T08:55:36.625Z,58.42
2019-02-16T08:56:36.911Z,58.11
2019-02-16T08:57:36.640Z,58.22
2019-02-16T08:58:36.645Z,57.91
2019-02-16T08:59:36.652Z,58.11
2019-02-16T09:00:36.655Z,57.70
2019-02-16T09:01:36.701Z,57.88
2019-02-16T09:02:36.682Z,57.88
2019-02-16T09:03:36.553Z,58.09
2019-02-16T09:04:36.696Z,57.57
2019-02-16T09:05:36.562Z,58.01
2019-02-16T09:06:36.690Z,57.68
2019-02-16T09:07:36.562Z,57.98
2019-02-16T09:08:36.615Z,57.88
2019-02-16T09:09:36.508Z,57.68
2019-02-16T09:10:36.540Z,57.47
2019-02-16T09:11:36.516Z,57.26
2019-02-16T09:12:36.648Z,57.14
2019-02-16T09:13:36.504Z,57.24
2019-02-16T09:14:36.553Z,56.62
2019-02-16T09:15:36.423Z,56.41
2019-02-16T09:16:38.377Z,56.82
2019-02-16T09:17:36.397Z,57.03
2019-02-16T09:18:36.577Z,57.65
2019-02-16T09:19:36.373Z,57.96
2019-02-16T09:20:36.483Z,56.93
2019-02-16T09:21:36.382Z,57.86
2019-02-16T09:22:36.428Z,57.01
2019-02-16T09:23:36.334Z,57.62
2019-02-16T09:24:36.413Z,57.21
2019-02-16T09:25:36.430Z,57.21
2019-02-16T09:26:36.393Z,57.31
2019-02-16T09:27:36.395Z,57.21
2019-02-16T09:28:36.366Z,58.03
2019-02-16T09:29:36.289Z,57.70
2019-02-16T09:30:36.338Z,56.57
2019-02-16T09:31:36.274Z,56.70
2019-02-16T09:32:36.335Z,55.64
2019-02-16T09:33:36.241Z,56.98
2019-02-16T09:34:36.363Z,55.72
2019-02-16T09:35:36.251Z,56.23
2019-02-16T09:36:36.246Z,55.00
2019-02-16T09:37:36.202Z,56.02
2019-02-16T09:38:36.215Z,55.51
2019-02-16T09:39:36.160Z,55.82
2019-02-16T09:40:36.219Z,55.41
2019-02-16T09:41:36.306Z,57.36
2019-02-16T09:42:36.175Z,56.62
2019-02-16T09:43:36.215Z,56.51
2019-02-16T09:44:36.175Z,56.51
2019-02-16T09:45:36.134Z,56.93
2019-02-16T09:46:36.166Z,55.08
2019-02-16T09:47:37.219Z,55.79
2019-02-16T09:48:38.208Z,54.77
2019-02-16T09:49:36.157Z,54.95
2019-02-16T09:50:36.060Z,54.97
2019-02-16T09:51:36.133Z,54.95
2019-02-16T09:52:37.094Z,54.85
2019-02-16T09:53:36.058Z,55.15
2019-02-16T09:54:36.032Z,54.85
2019-02-16T09:55:36.115Z,54.95
2019-02-16T09:56:36.067Z,54.23
2019-02-16T09:57:36.141Z,54.53
2019-02-16T09:58:35.954Z,55.13
2019-02-16T09:59:37.052Z,53.59
2019-02-16T10:00:35.930Z,53.17
2019-02-16T10:01:36.963Z,53.69
2019-02-16T10:02:35.951Z,54.10
2019-02-16T10:03:36.983Z,55.33
2019-02-16T10:04:35.902Z,55.23
2019-02-16T10:05:35.877Z,54.51
2019-02-16T10:06:35.918Z,55.10
2019-02-16T10:07:36.896Z,54.92
2019-02-16T10:08:35.848Z,55.02
2019-02-16T10:09:36.103Z,53.97
2019-02-16T10:10:35.889Z,54.10
2019-02-16T10:11:35.854Z,54.69
2019-02-16T10:12:35.864Z,53.66
2019-02-16T10:13:37.065Z,53.87
2019-02-16T10:14:35.814Z,54.90
2019-02-16T10:15:35.915Z,55.30
2019-02-16T10:16:35.830Z,55.00
2019-02-16T10:17:35.856Z,53.87
2019-02-16T10:18:35.747Z,55.08
2019-02-16T10:19:35.943Z,54.66
2019-02-16T10:20:35.781Z,54.66
2019-02-16T10:21:35.910Z,54.97
2019-02-16T10:22:35.748Z,54.36
2019-02-16T10:23:35.730Z,53.64
2019-02-16T10:24:35.763Z,53.85
2019-02-16T10:25:35.776Z,53.95
2019-02-16T10:26:35.782Z,54.46
2019-02-16T10:27:35.895Z,54.95
2019-02-16T10:28:35.647Z,54.46
2019-02-16T10:29:35.686Z,53.74
2019-02-16T10:30:35.622Z,54.66
2019-02-16T10:31:35.976Z,53.54
2019-02-16T10:32:35.602Z,54.05
2019-02-16T10:33:35.766Z,55.56
2019-02-16T10:34:35.597Z,56.10
2019-02-16T10:35:36.764Z,55.87
2019-02-16T10:36:35.732Z,54.77
2019-02-16T10:37:35.616Z,54.02
2019-02-16T10:38:35.784Z,54.02
2019-02-16T10:39:35.516Z,53.82
2019-02-16T10:40:35.802Z,53.61
2019-02-16T10:41:35.523Z,54.02
2019-02-16T10:42:35.677Z,54.44
2019-02-16T10:43:35.482Z,55.15
2019-02-16T10:44:35.623Z,55.46
2019-02-16T10:45:35.445Z,55.05
2019-02-16T10:46:35.480Z,53.80
2019-02-16T10:47:35.472Z,55.26
2019-02-16T10:48:35.644Z,55.02
2019-02-16T10:49:35.433Z,54.72
2019-02-16T10:50:35.541Z,56.56
2019-02-16T10:51:35.540Z,57.38
2019-02-16T10:52:35.445Z,55.23
2019-02-16T10:53:35.381Z,56.67
2019-02-16T10:54:35.584Z,56.77
2019-02-16T10:55:35.363Z,57.25
2019-02-16T10:56:35.563Z,56.74
2019-02-16T10:57:35.338Z,55.30
2019-02-16T10:58:35.334Z,56.74
2019-02-16T10:59:35.305Z,55.41
2019-02-16T11:00:35.521Z,54.79
2019-02-16T11:01:35.327Z,55.51
2019-02-16T11:02:36.285Z,54.59
2019-02-16T11:03:35.315Z,54.69
2019-02-16T11:04:38.151Z,55.72
2019-02-16T11:05:35.431Z,55.00
2019-02-16T11:06:35.247Z,54.57
2019-02-16T11:07:35.362Z,55.38
2019-02-16T11:08:35.240Z,55.58
2019-02-16T11:09:35.376Z,54.36
2019-02-16T11:10:35.189Z,54.64
2019-02-16T11:11:35.400Z,54.74
2019-02-16T11:12:35.192Z,54.74
2019-02-16T11:13:35.359Z,54.64
2019-02-16T11:14:35.144Z,55.15
2019-02-16T11:15:35.346Z,55.15
2019-02-16T11:16:35.119Z,55.66
2019-02-16T11:17:35.321Z,56.46
2019-02-16T11:18:35.154Z,55.43
2019-02-16T11:19:35.218Z,54.72
2019-02-16T11:20:35.104Z,54.64
2019-02-16T11:21:35.131Z,55.33
2019-02-16T11:22:35.070Z,54.51
2019-02-16T11:23:35.249Z,52.47
2019-02-16T11:24:36.216Z,53.26
2019-02-16T11:25:35.171Z,52.85
2019-02-16T11:26:35.065Z,54.49
2019-02-16T11:27:35.026Z,53.57
2019-02-16T11:28:35.012Z,53.03
2019-02-16T11:29:35.187Z,53.34
2019-02-16T11:30:34.993Z,53.54
2019-02-16T11:31:37.216Z,53.75
2019-02-16T11:32:34.965Z,53.03
2019-02-16T11:33:34.966Z,52.91
2019-02-16T11:34:34.930Z,52.25
2019-02-16T11:35:35.138Z,50.46
2019-02-16T11:36:34.986Z,49.88
2019-02-16T11:37:35.031Z,47.58
2019-02-16T11:38:34.900Z,45.48
2019-02-16T11:39:34.879Z,43.32
2019-02-16T11:40:35.074Z,43.20
2019-02-16T11:41:34.898Z,42.88
2019-02-16T11:42:35.007Z,41.64
2019-02-16T11:43:34.850Z,40.89
2019-02-16T11:44:34.993Z,40.75
2019-02-16T11:45:34.814Z,39.93
2019-02-16T11:46:34.974Z,39.99
2019-02-16T11:47:34.830Z,38.86
2019-02-16T11:48:34.933Z,37.21
2019-02-16T11:49:34.801Z,38.00
2019-02-16T11:50:34.933Z,35.45
2019-02-16T11:51:34.804Z,35.43
2019-02-16T11:52:34.944Z,34.71
2019-02-16T11:53:34.733Z,33.89
2019-02-16T11:54:34.871Z,35.38
2019-02-16T11:55:34.732Z,34.46
2019-02-16T11:56:34.742Z,34.86
2019-02-16T11:57:34.733Z,34.27
2019-02-16T11:58:34.885Z,33.92
2019-02-16T11:59:34.663Z,34.96
2019-02-16T12:00:34.899Z,35.68
2019-02-16T12:01:34.698Z,36.08
2019-02-16T12:02:39.637Z,36.49
2019-02-16T12:03:35.632Z,36.27
2019-02-16T12:04:34.826Z,35.85
2019-02-16T12:05:34.618Z,34.11
2019-02-16T12:06:34.823Z,35.31
2019-02-16T12:07:34.607Z,35.30
2019-02-16T12:08:34.577Z,34.99
2019-02-16T12:09:36.204Z,33.30
2019-02-16T12:10:34.765Z,34.41
2019-02-16T12:11:34.589Z,33.91
2019-02-16T12:12:34.651Z,34.83
2019-02-16T12:13:34.535Z,35.23
2019-02-16T12:14:34.525Z,33.72
2019-02-16T12:15:34.519Z,33.50
2019-02-16T12:16:34.671Z,34.19
2019-02-16T12:17:34.491Z,34.79
2019-02-16T12:18:34.611Z,35.08
2019-02-16T12:19:34.480Z,35.06
2019-02-16T12:20:34.464Z,34.56
2019-02-16T12:21:34.575Z,35.26
2019-02-16T12:22:34.442Z,33.95
2019-02-16T12:23:34.541Z,33.36
2019-02-16T12:24:34.447Z,33.65
2019-02-16T12:25:34.545Z,33.75
2019-02-16T12:26:34.468Z,33.55
2019-02-16T12:27:34.565Z,32.67
2019-02-16T12:28:34.381Z,33.70
2019-02-16T12:29:34.466Z,33.60
2019-02-16T12:30:34.356Z,33.70
2019-02-16T12:31:34.562Z,33.42
2019-02-16T12:32:34.325Z,34.20
2019-02-16T12:33:34.517Z,32.68
2019-02-16T12:34:34.313Z,33.97
2019-02-16T12:35:34.429Z,32.55
2019-02-16T12:36:34.329Z,32.64
2019-02-16T12:37:34.416Z,33.44
2019-02-16T12:38:34.893Z,32.53
2019-02-16T12:39:34.446Z,32.33
2019-02-16T12:40:34.255Z,32.14
2019-02-16T12:41:34.415Z,32.15
2019-02-16T12:42:34.217Z,32.24
2019-02-16T12:43:34.213Z,32.87
2019-02-16T12:44:34.212Z,32.46
2019-02-16T12:45:34.388Z,32.87
2019-02-16T12:46:34.225Z,32.39
2019-02-16T12:47:34.285Z,33.01
2019-02-16T12:48:34.917Z,33.45
2019-02-16T12:49:34.141Z,33.75
2019-02-16T12:50:34.312Z,34.36
2019-02-16T12:51:34.149Z,33.64
2019-02-16T12:52:34.219Z,33.70